createdAt,value
2023-04-26T00:01:06.174Z,6.76
2023-04-26T00:03:35.438Z,6.82
2023-04-26T00:06:09.516Z,6.87
2023-04-26T00:08:37.989Z,6.95
2023-04-26T00:11:06.910Z,6.94
2023-04-26T00:13:35.857Z,6.87
2023-04-26T00:16:05.465Z,6.85
2023-04-26T00:18:34.675Z,6.93
2023-04-26T00:21:06.212Z,7.01
2023-04-26T00:23:36.941Z,7.08
2023-04-26T00:26:05.853Z,7.15
2023-04-26T00:28:34.550Z,7.21
2023-04-26T00:31:04.301Z,7.29
2023-04-26T00:33:33.357Z,7.33
2023-04-26T00:36:02.138Z,7.40
2023-04-26T00:38:32.055Z,7.46
2023-04-26T00:41:01.683Z,7.46
2023-04-26T00:43:30.715Z,7.45
2023-04-26T00:45:59.446Z,7.46
2023-04-26T00:48:28.600Z,7.41
2023-04-26T00:50:57.443Z,7.33
2023-04-26T00:53:27.499Z,7.25
2023-04-26T00:55:56.595Z,7.21
2023-04-26T00:58:26.332Z,7.20
2023-04-26T01:00:54.849Z,7.16
2023-04-26T01:03:23.911Z,7.11
2023-04-26T01:05:53.551Z,7.10
2023-04-26T01:08:23.991Z,7.13
2023-04-26T01:10:53.684Z,7.16
2023-04-26T01:13:22.345Z,7.21
2023-04-26T01:15:51.659Z,7.22
2023-04-26T01:18:22.614Z,7.21
2023-04-26T01:20:53.438Z,7.27
2023-04-26T01:23:21.761Z,7.25
2023-04-26T01:25:50.416Z,7.18
2023-04-26T01:28:19.825Z,7.17
2023-04-26T01:30:48.342Z,7.20
2023-04-26T01:33:17.828Z,7.15
2023-04-26T01:35:46.577Z,7.07
2023-04-26T01:38:16.445Z,7.00
2023-04-26T01:40:46.452Z,6.86
2023-04-26T01:43:15.907Z,6.79
2023-04-26T01:45:50.513Z,6.77
2023-04-26T01:48:31.721Z,6.79
2023-04-26T01:51:03.489Z,6.83
2023-04-26T01:53:32.487Z,6.90
2023-04-26T01:56:02.908Z,6.97
2023-04-26T01:58:32.770Z,7.03
2023-04-26T02:01:08.921Z,7.09
2023-04-26T02:03:39.023Z,7.14
2023-04-26T02:06:08.117Z,7.12
2023-04-26T02:08:36.862Z,7.03
2023-04-26T02:11:05.703Z,6.93
2023-04-26T02:13:34.674Z,6.90
2023-04-26T02:16:03.841Z,6.87
2023-04-26T02:18:32.571Z,6.84
2023-04-26T02:21:01.295Z,6.83
2023-04-26T02:23:29.734Z,6.77
2023-04-26T02:25:58.460Z,6.68
2023-04-26T02:28:27.456Z,6.63
2023-04-26T02:31:00.438Z,6.64
2023-04-26T02:33:30.674Z,6.59
2023-04-26T02:35:59.779Z,6.59
2023-04-26T02:38:28.574Z,6.63
2023-04-26T02:41:00.024Z,6.62
2023-04-26T02:43:28.654Z,6.58
2023-04-26T02:45:59.513Z,6.59
2023-04-26T02:48:28.965Z,6.55
2023-04-26T02:50:58.341Z,6.51
2023-04-26T02:53:27.188Z,6.46
2023-04-26T02:55:57.226Z,6.43
2023-04-26T02:58:25.652Z,6.33
2023-04-26T03:00:55.132Z,6.24
2023-04-26T03:03:24.946Z,6.19
2023-04-26T03:05:53.922Z,6.15
2023-04-26T03:08:23.421Z,6.14
2023-04-26T03:10:51.902Z,6.16
2023-04-26T03:13:22.909Z,6.19
2023-04-26T03:15:53.165Z,6.17
2023-04-26T03:18:23.438Z,6.13
2023-04-26T03:20:52.664Z,6.15
2023-04-26T03:23:24.957Z,6.14
2023-04-26T03:25:54.389Z,6.13
2023-04-26T03:28:23.488Z,6.11
2023-04-26T03:30:52.163Z,6.03
2023-04-26T03:33:21.781Z,6.00
2023-04-26T03:35:51.829Z,5.97
2023-04-26T03:38:20.655Z,5.94
2023-04-26T03:40:49.870Z,5.91
2023-04-26T03:43:18.340Z,5.89
2023-04-26T03:45:50.762Z,5.93
2023-04-26T03:48:19.263Z,6.04
2023-04-26T03:50:47.943Z,6.14
2023-04-26T03:53:16.897Z,6.24
2023-04-26T03:55:45.855Z,6.29
2023-04-26T03:58:15.449Z,6.37
2023-04-26T04:00:44.831Z,6.37
2023-04-26T04:03:13.872Z,6.28
2023-04-26T04:05:42.506Z,6.29
2023-04-26T04:08:11.886Z,6.36
2023-04-26T04:10:40.296Z,6.42
2023-04-26T04:13:09.077Z,6.44
2023-04-26T04:15:38.593Z,6.43
2023-04-26T04:18:07.305Z,6.45
2023-04-26T04:20:35.801Z,6.46
2023-04-26T04:23:06.957Z,6.47
2023-04-26T04:25:36.949Z,6.51
2023-04-26T04:28:09.694Z,6.61
2023-04-26T04:30:38.280Z,6.75
2023-04-26T04:33:07.405Z,6.84
2023-04-26T04:35:37.113Z,6.88
2023-04-26T04:38:07.632Z,6.90
2023-04-26T04:40:36.305Z,6.86
2023-04-26T04:43:05.333Z,6.92
2023-04-26T04:45:35.871Z,7.00
2023-04-26T04:48:05.540Z,7.02
2023-04-26T04:50:34.439Z,7.05
2023-04-26T04:53:04.063Z,7.12
2023-04-26T04:55:32.765Z,7.23
2023-04-26T04:58:02.143Z,7.34
2023-04-26T05:00:31.177Z,7.47
2023-04-26T05:03:23.334Z,7.58
2023-04-26T05:05:53.219Z,7.77
2023-04-26T05:08:22.177Z,8.79
2023-04-26T05:10:51.234Z,9.86
2023-04-26T05:13:19.797Z,10.49
2023-04-26T05:15:48.302Z,10.23
2023-04-26T05:18:17.348Z,9.84
2023-04-26T05:20:46.104Z,9.66
2023-04-26T05:23:14.616Z,9.47
2023-04-26T05:25:44.268Z,9.35
2023-04-26T05:28:31.939Z,9.21
2023-04-26T05:31:15.489Z,9.16
2023-04-26T05:33:54.402Z,9.14
2023-04-26T05:36:37.013Z,9.53
2023-04-26T05:39:06.893Z,10.29
2023-04-26T05:41:35.349Z,10.58
2023-04-26T05:44:04.640Z,10.93
2023-04-26T05:46:34.306Z,11.84
2023-04-26T05:49:02.861Z,12.43
2023-04-26T05:51:31.874Z,12.87
2023-04-26T05:54:01.158Z,14.04
2023-04-26T05:56:30.082Z,15.17
2023-04-26T05:58:59.122Z,16.14
2023-04-26T06:01:28.111Z,16.33
2023-04-26T06:03:59.810Z,16.70
2023-04-26T06:06:33.144Z,16.72
2023-04-26T06:09:01.835Z,16.98
2023-04-26T06:11:31.455Z,17.04
2023-04-26T06:14:00.211Z,17.54
2023-04-26T06:16:28.844Z,17.53
2023-04-26T06:18:57.480Z,17.99
2023-04-26T06:21:26.871Z,17.42
2023-04-26T06:23:55.670Z,16.42
2023-04-26T06:26:25.881Z,15.84
2023-04-26T06:28:54.658Z,16.72
2023-04-26T06:31:23.224Z,17.70
2023-04-26T06:33:52.750Z,17.62
2023-04-26T06:36:22.025Z,17.26
2023-04-26T06:38:50.538Z,17.74
2023-04-26T06:41:19.781Z,18.55
2023-04-26T06:43:50.598Z,19.29
2023-04-26T06:46:23.772Z,19.62
2023-04-26T06:48:56.752Z,19.58
2023-04-26T06:51:27.237Z,18.75
2023-04-26T06:53:59.536Z,18.06
2023-04-26T06:56:28.560Z,18.10
2023-04-26T06:59:02.983Z,18.39
2023-04-26T07:01:34.378Z,19.28
2023-04-26T07:04:05.130Z,19.78
2023-04-26T07:06:34.714Z,19.25
2023-04-26T07:09:04.738Z,18.50
2023-04-26T07:11:33.390Z,18.07
2023-04-26T07:14:02.398Z,18.46
2023-04-26T07:16:30.973Z,19.26
2023-04-26T07:18:59.868Z,19.78
2023-04-26T07:21:28.530Z,20.12
2023-04-26T07:23:57.163Z,20.76
2023-04-26T07:26:30.516Z,21.33
2023-04-26T07:29:00.282Z,21.31
2023-04-26T07:31:28.723Z,21.00
2023-04-26T07:33:57.731Z,20.65
2023-04-26T07:36:28.181Z,20.86
2023-04-26T07:38:56.707Z,20.78
2023-04-26T07:41:25.784Z,20.56
2023-04-26T07:43:54.940Z,19.96
2023-04-26T07:46:23.794Z,19.07
2023-04-26T07:48:52.459Z,17.98
2023-04-26T07:51:21.301Z,17.23
2023-04-26T07:53:49.905Z,17.12
2023-04-26T07:56:18.657Z,17.40
2023-04-26T07:58:48.701Z,17.48
2023-04-26T08:01:21.032Z,17.28
2023-04-26T08:03:50.249Z,16.55
2023-04-26T08:06:20.268Z,15.96
2023-04-26T08:08:51.148Z,15.91
2023-04-26T08:11:19.863Z,16.85
2023-04-26T08:13:48.483Z,17.55
2023-04-26T08:16:17.200Z,17.51
2023-04-26T08:18:46.888Z,16.73
2023-04-26T08:21:15.664Z,16.13
2023-04-26T08:23:45.074Z,16.37
2023-04-26T08:26:13.686Z,16.73
2023-04-26T08:28:42.188Z,17.13
2023-04-26T08:31:11.313Z,17.62
2023-04-26T08:33:39.882Z,17.96
2023-04-26T08:36:08.526Z,17.32
2023-04-26T08:38:37.446Z,16.56
2023-04-26T08:41:08.566Z,15.84
2023-04-26T08:43:38.930Z,14.99
2023-04-26T08:46:09.663Z,14.69
2023-04-26T08:48:38.260Z,14.64
2023-04-26T08:51:12.588Z,14.88
2023-04-26T08:53:42.218Z,15.06
2023-04-26T08:56:12.690Z,15.20
2023-04-26T08:58:41.414Z,15.50
2023-04-26T09:01:10.896Z,15.57
2023-04-26T09:03:39.871Z,15.37
2023-04-26T09:06:08.777Z,15.17
2023-04-26T09:08:42.451Z,14.93
2023-04-26T09:11:11.054Z,14.42
2023-04-26T09:13:40.213Z,13.95
2023-04-26T09:16:09.268Z,13.68
2023-04-26T09:18:50.847Z,13.62
2023-04-26T09:21:20.670Z,13.77
2023-04-26T09:24:05.072Z,13.80
2023-04-26T09:26:33.942Z,13.62
2023-04-26T09:29:17.521Z,13.51
2023-04-26T09:31:51.075Z,14.09
2023-04-26T09:34:19.957Z,14.70
2023-04-26T09:36:52.149Z,15.11
2023-04-26T09:39:49.923Z,15.64
2023-04-26T09:42:19.682Z,16.31
2023-04-26T09:44:48.271Z,16.77
2023-04-26T09:47:17.063Z,16.96
2023-04-26T09:49:49.210Z,16.82
2023-04-26T09:52:19.562Z,16.40
2023-04-26T09:54:53.609Z,16.14
2023-04-26T09:57:23.981Z,16.14
2023-04-26T09:59:55.704Z,16.38
2023-04-26T10:02:27.860Z,16.71
2023-04-26T10:04:57.729Z,16.52
2023-04-26T10:07:26.862Z,15.85
2023-04-26T10:09:57.589Z,15.11
2023-04-26T10:12:26.978Z,14.46
2023-04-26T10:14:57.936Z,14.14
2023-04-26T10:17:27.343Z,14.28
2023-04-26T10:19:59.612Z,14.30
2023-04-26T10:22:31.289Z,14.32
2023-04-26T10:25:00.504Z,14.35
2023-04-26T10:27:44.666Z,14.48
2023-04-26T10:30:20.862Z,14.69
2023-04-26T10:32:56.090Z,14.64
2023-04-26T10:35:26.715Z,14.52
2023-04-26T10:38:08.159Z,14.46
2023-04-26T10:40:41.218Z,14.61
2023-04-26T10:43:14.545Z,14.69
2023-04-26T10:45:45.568Z,14.68
2023-04-26T10:48:19.296Z,14.47
2023-04-26T10:51:06.202Z,14.09
2023-04-26T10:53:45.643Z,13.70
2023-04-26T10:56:26.262Z,13.62
2023-04-26T11:01:53.142Z,13.45
2023-04-26T11:04:22.860Z,13.24
2023-04-26T11:06:56.463Z,12.96
2023-04-26T11:09:42.375Z,12.74
2023-04-26T11:12:15.296Z,12.59
2023-04-26T11:14:50.228Z,12.42
2023-04-26T11:17:18.910Z,12.24
2023-04-26T11:19:48.087Z,12.14
2023-04-26T11:22:17.360Z,12.06
2023-04-26T11:24:46.057Z,12.04
2023-04-26T11:27:15.064Z,12.16
2023-04-26T11:29:44.777Z,12.43
2023-04-26T11:32:14.726Z,12.66
2023-04-26T11:34:44.380Z,12.67
2023-04-26T11:37:13.045Z,12.55
2023-04-26T11:39:41.587Z,12.54
2023-04-26T11:42:13.667Z,12.64
2023-04-26T11:44:42.143Z,12.78
2023-04-26T11:47:11.054Z,12.99
2023-04-26T11:49:40.587Z,13.09
2023-04-26T11:52:10.123Z,13.07
2023-04-26T11:54:39.037Z,12.97
2023-04-26T11:57:17.210Z,12.90
2023-04-26T11:59:47.190Z,12.90
2023-04-26T12:02:16.272Z,12.80
2023-04-26T12:04:45.339Z,12.66
2023-04-26T12:07:19.233Z,12.76
2023-04-26T12:09:47.805Z,13.00
2023-04-26T12:12:16.500Z,13.28
2023-04-26T12:14:47.544Z,13.47
2023-04-26T12:17:16.270Z,13.52
2023-04-26T12:19:45.226Z,13.42
2023-04-26T12:22:22.540Z,13.39
2023-04-26T12:25:05.535Z,13.57
2023-04-26T12:27:34.607Z,13.77
2023-04-26T12:30:03.239Z,13.95
2023-04-26T12:32:31.987Z,13.99
2023-04-26T12:35:01.652Z,13.79
2023-04-26T12:37:30.122Z,13.58
2023-04-26T12:39:58.642Z,13.22
2023-04-26T12:42:27.543Z,12.88
2023-04-26T12:44:56.401Z,12.68
2023-04-26T12:47:25.292Z,12.50
2023-04-26T12:49:54.647Z,12.44
2023-04-26T12:52:23.578Z,12.46
2023-04-26T12:54:52.106Z,12.39
2023-04-26T12:57:22.208Z,12.50
2023-04-26T12:59:50.700Z,12.72
2023-04-26T13:02:19.318Z,12.81
2023-04-26T13:04:48.701Z,12.81
2023-04-26T13:07:17.631Z,12.84
2023-04-26T13:09:46.208Z,12.74
2023-04-26T13:12:16.132Z,12.60
2023-04-26T13:14:44.689Z,12.28
2023-04-26T13:17:13.218Z,12.09
2023-04-26T13:19:42.105Z,12.01
2023-04-26T13:22:11.864Z,12.01
2023-04-26T13:24:40.430Z,12.16
2023-04-26T13:27:09.413Z,12.34
2023-04-26T13:29:38.125Z,12.39
2023-04-26T13:32:07.298Z,12.40
2023-04-26T13:34:36.303Z,12.42
2023-04-26T13:37:04.787Z,12.50
2023-04-26T13:39:33.357Z,12.61
2023-04-26T13:42:02.748Z,12.67
2023-04-26T13:44:31.511Z,12.90
2023-04-26T13:47:01.074Z,13.12
2023-04-26T13:49:30.938Z,13.26
2023-04-26T13:51:59.792Z,13.29
2023-04-26T13:54:28.328Z,13.10
2023-04-26T13:56:57.418Z,12.88
2023-04-26T13:59:26.999Z,12.84
2023-04-26T14:01:59.097Z,12.88
2023-04-26T14:04:28.381Z,12.93
2023-04-26T14:06:57.392Z,12.97
2023-04-26T14:09:26.026Z,12.89
2023-04-26T14:12:07.268Z,12.75
2023-04-26T14:14:37.432Z,12.56
2023-04-26T14:17:05.956Z,12.32
2023-04-26T14:19:34.535Z,12.04
2023-04-26T14:22:03.853Z,11.82
2023-04-26T14:24:32.383Z,11.70
2023-04-26T14:27:05.416Z,11.60
2023-04-26T14:29:34.607Z,11.63
2023-04-26T14:32:03.402Z,11.70
2023-04-26T14:34:33.141Z,11.69
2023-04-26T14:37:04.322Z,11.63
2023-04-26T14:39:32.740Z,11.67
2023-04-26T14:42:02.004Z,11.63
2023-04-26T14:44:30.985Z,11.46
2023-04-26T14:46:59.858Z,11.43
2023-04-26T14:49:28.436Z,11.48
2023-04-26T14:51:57.605Z,11.62
2023-04-26T14:54:26.266Z,11.85
2023-04-26T14:56:54.713Z,12.03
2023-04-26T14:59:23.537Z,12.17
2023-04-26T15:01:53.590Z,12.18
2023-04-26T15:04:22.253Z,12.10
2023-04-26T15:06:51.244Z,12.00
2023-04-26T15:09:19.759Z,11.91
2023-04-26T15:11:48.910Z,11.74
2023-04-26T15:14:17.791Z,11.56
2023-04-26T15:16:46.263Z,11.38
2023-04-26T15:19:14.773Z,11.25
2023-04-26T15:21:43.552Z,11.16
2023-04-26T15:24:12.053Z,11.18
2023-04-26T15:26:40.787Z,11.35
2023-04-26T15:29:09.581Z,11.51
2023-04-26T15:31:38.052Z,11.80
2023-04-26T15:34:10.060Z,12.07
2023-04-26T15:36:41.546Z,12.16
2023-04-26T15:39:10.276Z,12.29
2023-04-26T15:41:42.781Z,12.29
2023-04-26T15:44:15.339Z,12.28
2023-04-26T15:46:55.526Z,12.18
2023-04-26T15:49:44.562Z,11.93
2023-04-26T15:52:14.756Z,11.61
2023-04-26T15:54:43.716Z,11.27
2023-04-26T15:57:12.683Z,11.00
2023-04-26T15:59:41.765Z,10.82
2023-04-26T16:02:10.256Z,10.73
2023-04-26T16:04:39.182Z,10.66
2023-04-26T16:07:08.403Z,10.54
2023-04-26T16:09:37.519Z,10.53
2023-04-26T16:12:06.658Z,10.60
2023-04-26T16:14:38.160Z,10.79
2023-04-26T16:17:06.999Z,10.95
2023-04-26T16:19:35.634Z,11.02
2023-04-26T16:22:04.933Z,11.08
2023-04-26T16:24:33.582Z,11.09
2023-04-26T16:27:02.211Z,11.05
2023-04-26T16:29:31.330Z,11.01
2023-04-26T16:32:00.044Z,10.98
2023-04-26T16:34:28.730Z,10.96
2023-04-26T16:36:58.022Z,10.94
2023-04-26T16:39:28.525Z,10.92
2023-04-26T16:41:57.814Z,10.89
2023-04-26T16:44:27.025Z,10.79
2023-04-26T16:46:56.304Z,10.70
2023-04-26T16:49:24.884Z,10.59
2023-04-26T16:51:59.215Z,10.42
2023-04-26T16:54:28.974Z,10.26
2023-04-26T16:56:58.591Z,10.11
2023-04-26T16:59:27.962Z,9.97
2023-04-26T17:01:56.691Z,9.85
2023-04-26T17:04:43.383Z,9.80
2023-04-26T17:07:28.304Z,9.75
2023-04-26T17:10:24.519Z,9.71
2023-04-26T17:13:15.209Z,9.70
2023-04-26T17:16:04.932Z,9.70
2023-04-26T17:18:49.543Z,9.75
2023-04-26T17:21:34.464Z,9.73
2023-04-26T17:24:26.343Z,9.69
2023-04-26T17:27:19.027Z,9.70
2023-04-26T17:30:04.168Z,9.67
2023-04-26T17:32:51.107Z,9.61
2023-04-26T17:35:36.550Z,9.53
2023-04-26T17:38:25.974Z,9.44
2023-04-26T17:41:18.532Z,9.43
2023-04-26T17:43:55.235Z,9.42
2023-04-26T17:46:24.293Z,9.36
2023-04-26T17:48:53.784Z,9.29
2023-04-26T17:51:23.009Z,9.28
2023-04-26T17:53:51.774Z,9.29
2023-04-26T17:56:20.473Z,9.31
2023-04-26T17:58:49.596Z,9.34
2023-04-26T18:01:18.294Z,9.37
2023-04-26T18:03:46.965Z,9.37
2023-04-26T18:06:18.682Z,9.33
2023-04-26T18:08:47.399Z,9.27
2023-04-26T18:11:16.302Z,9.24
2023-04-26T18:13:45.044Z,9.25
2023-04-26T18:16:14.957Z,9.26
2023-04-26T18:18:44.389Z,9.29
2023-04-26T18:21:13.351Z,9.30
2023-04-26T18:23:42.606Z,9.31
2023-04-26T18:26:11.369Z,9.26
2023-04-26T18:28:40.132Z,9.20
2023-04-26T18:31:08.589Z,9.15
2023-04-26T18:33:37.327Z,9.14
2023-04-26T18:36:06.933Z,9.14
2023-04-26T18:38:35.342Z,9.13
2023-04-26T18:41:03.925Z,9.15
2023-04-26T18:43:32.661Z,9.15
2023-04-26T18:46:01.878Z,9.15
2023-04-26T18:48:31.113Z,9.18
2023-04-26T18:50:59.977Z,9.17
2023-04-26T18:53:29.131Z,9.15
2023-04-26T18:55:57.644Z,9.06
2023-04-26T18:58:26.726Z,9.04
2023-04-26T19:00:55.962Z,9.02
2023-04-26T19:03:25.255Z,8.95
2023-04-26T19:05:54.455Z,8.88
2023-04-26T19:08:24.956Z,8.83
2023-04-26T19:10:53.459Z,8.81
2023-04-26T19:13:22.496Z,8.81
2023-04-26T19:15:51.327Z,8.84
2023-04-26T19:18:19.847Z,8.88
2023-04-26T19:20:49.582Z,8.89
2023-04-26T19:23:18.910Z,8.88
2023-04-26T19:25:47.535Z,8.86
2023-04-26T19:28:16.723Z,8.83
2023-04-26T19:30:45.646Z,8.81
2023-04-26T19:33:14.232Z,8.79
2023-04-26T19:35:42.789Z,8.77
2023-04-26T19:38:11.740Z,8.72
2023-04-26T19:40:40.197Z,8.65
2023-04-26T19:43:09.032Z,8.58
2023-04-26T19:45:39.578Z,8.53
2023-04-26T19:48:14.219Z,8.36
2023-04-26T19:50:45.240Z,8.22
2023-04-26T19:53:15.493Z,8.17
2023-04-26T19:55:44.200Z,8.16
2023-04-26T19:58:12.802Z,8.14
2023-04-26T20:00:41.864Z,8.12
2023-04-26T20:03:11.294Z,8.08
2023-04-26T20:05:40.802Z,8.06
2023-04-26T20:08:09.486Z,8.05
2023-04-26T20:10:38.492Z,8.04
2023-04-26T20:13:07.433Z,8.04
2023-04-26T20:15:36.630Z,8.02
2023-04-26T20:18:05.322Z,8.00
2023-04-26T20:20:33.819Z,8.01
2023-04-26T20:23:03.938Z,7.98
2023-04-26T20:25:32.624Z,7.91
2023-04-26T20:28:02.528Z,7.82
2023-04-26T20:30:34.403Z,7.69
2023-04-26T20:33:04.750Z,7.58
2023-04-26T20:35:33.389Z,7.57
2023-04-26T20:38:02.652Z,7.59
2023-04-26T20:40:31.121Z,7.60
2023-04-26T20:43:00.060Z,7.62
2023-04-26T20:45:28.830Z,7.64
2023-04-26T20:47:57.329Z,7.66
2023-04-26T20:50:26.107Z,7.67
2023-04-26T20:52:55.335Z,7.64
2023-04-26T20:55:23.821Z,7.62
2023-04-26T20:57:52.506Z,7.63
2023-04-26T21:00:21.583Z,7.64
2023-04-26T21:02:50.605Z,7.62
2023-04-26T21:05:19.461Z,7.61
2023-04-26T21:07:48.190Z,7.62
2023-04-26T21:10:16.679Z,7.57
2023-04-26T21:12:45.265Z,7.44
2023-04-26T21:15:13.917Z,7.31
2023-04-26T21:17:42.489Z,7.22
2023-04-26T21:20:11.742Z,7.10
2023-04-26T21:22:40.587Z,6.99
2023-04-26T21:25:09.565Z,6.98
2023-04-26T21:27:38.016Z,6.99
2023-04-26T21:30:08.170Z,7.00
2023-04-26T21:32:37.883Z,6.98
2023-04-26T21:35:07.909Z,6.96
2023-04-26T21:37:37.626Z,6.98
2023-04-26T21:40:07.280Z,6.94
2023-04-26T21:42:35.747Z,6.97
2023-04-26T21:45:05.208Z,7.01
2023-04-26T21:47:33.802Z,7.04
2023-04-26T21:50:02.306Z,7.07
2023-04-26T21:52:31.975Z,7.07
2023-04-26T21:55:00.659Z,7.05
2023-04-26T21:57:29.110Z,7.03
2023-04-26T21:59:58.898Z,6.99
2023-04-26T22:02:27.616Z,6.94
2023-04-26T22:04:57.159Z,6.93
2023-04-26T22:08:01.920Z,6.91
2023-04-26T22:10:30.465Z,6.88
2023-04-26T22:12:59.334Z,6.86
2023-04-26T22:15:28.194Z,6.86
2023-04-26T22:17:56.722Z,6.80
2023-04-26T22:20:26.048Z,6.73
2023-04-26T22:22:55.335Z,6.71
2023-04-26T22:25:24.703Z,6.69
2023-04-26T22:27:53.783Z,6.64
2023-04-26T22:30:25.935Z,6.58
2023-04-26T22:32:55.819Z,6.55
2023-04-26T22:35:25.804Z,6.54
2023-04-26T22:37:54.879Z,6.54
2023-04-26T22:40:23.444Z,6.53
2023-04-26T22:42:52.512Z,6.53
2023-04-26T22:45:21.033Z,6.54
2023-04-26T22:47:50.345Z,6.54
2023-04-26T22:50:19.187Z,6.54
2023-04-26T22:52:47.613Z,6.55
2023-04-26T22:55:16.514Z,6.55
2023-04-26T22:57:46.993Z,6.50
2023-04-26T23:00:16.263Z,6.42
2023-04-26T23:02:44.886Z,6.40
2023-04-26T23:05:14.228Z,6.35
2023-04-26T23:07:42.885Z,6.28
2023-04-26T23:10:11.910Z,6.24
2023-04-26T23:12:41.817Z,6.19
2023-04-26T23:15:10.820Z,6.15
2023-04-26T23:17:41.969Z,6.14
2023-04-26T23:20:14.187Z,6.12
2023-04-26T23:22:43.600Z,6.09
2023-04-26T23:25:12.329Z,6.07
2023-04-26T23:27:41.545Z,6.03
2023-04-26T23:30:10.338Z,6.01
2023-04-26T23:32:38.961Z,5.99
2023-04-26T23:35:08.631Z,5.95
2023-04-26T23:37:37.821Z,5.95
2023-04-26T23:40:07.225Z,5.99
2023-04-26T23:42:37.419Z,6.05
2023-04-26T23:45:08.018Z,6.11
2023-04-26T23:47:36.582Z,6.14
2023-04-26T23:50:06.041Z,6.14
2023-04-26T23:52:34.848Z,6.17
2023-04-26T23:55:03.752Z,6.17
2023-04-26T23:57:32.847Z,6.16
